createdAt,value
2023-01-27T00:01:00.755Z,86.43
2023-01-27T00:03:29.353Z,97.15
2023-01-27T00:05:58.742Z,95.78
2023-01-27T00:08:28.752Z,90.93
2023-01-27T00:14:07.181Z,67.03
2023-01-27T00:16:35.590Z,48.70
2023-01-27T00:19:03.177Z,47.85
2023-01-27T00:21:49.694Z,57.88
2023-01-27T00:24:35.785Z,48.58
2023-01-27T00:27:10.973Z,43.85
2023-01-27T00:29:40.270Z,50.90
2023-01-27T00:32:26.821Z,42.37
2023-01-27T00:34:54.386Z,44.38
2023-01-27T00:37:21.915Z,44.58
2023-01-27T00:39:49.953Z,45.10
2023-01-27T00:42:17.565Z,44.00
2023-01-27T00:45:05.061Z,45.80
2023-01-27T00:47:34.015Z,49.25
2023-01-27T00:50:02.023Z,51.30
2023-01-27T00:52:30.046Z,51.75
2023-01-27T00:54:59.968Z,48.90
2023-01-27T00:57:27.792Z,41.60
2023-01-27T00:59:55.339Z,41.60
2023-01-27T01:02:23.577Z,47.72
2023-01-27T01:04:51.395Z,44.05
2023-01-27T01:07:19.289Z,44.40
2023-01-27T01:09:46.832Z,45.10
2023-01-27T01:12:14.443Z,45.72
2023-01-27T01:14:42.153Z,42.22
2023-01-27T01:17:10.427Z,51.15
2023-01-27T01:19:38.313Z,44.90
2023-01-27T01:22:05.914Z,37.65
2023-01-27T01:24:33.804Z,40.88
2023-01-27T01:27:01.426Z,39.00
2023-01-27T01:29:29.189Z,42.47
2023-01-27T01:32:02.132Z,41.42
2023-01-27T01:34:32.886Z,40.75
2023-01-27T01:37:00.505Z,38.63
2023-01-27T01:39:29.366Z,46.00
2023-01-27T01:41:58.159Z,45.38
2023-01-27T01:44:31.522Z,43.72
2023-01-27T01:47:00.694Z,46.00
2023-01-27T01:49:35.226Z,45.85
2023-01-27T01:52:16.044Z,56.58
2023-01-27T01:54:56.272Z,45.20
2023-01-27T01:57:32.092Z,51.13
2023-01-27T02:00:07.688Z,44.90
2023-01-27T02:02:42.352Z,46.92
2023-01-27T02:05:19.229Z,44.97
2023-01-27T02:08:09.732Z,48.92
2023-01-27T02:10:38.914Z,47.03
2023-01-27T02:13:06.461Z,45.33
2023-01-27T02:15:39.105Z,41.72
2023-01-27T02:18:07.768Z,44.53
2023-01-27T02:20:45.845Z,41.42
2023-01-27T02:23:32.142Z,43.70
2023-01-27T02:26:11.488Z,43.33
2023-01-27T02:28:40.474Z,43.53
2023-01-27T02:31:08.271Z,42.40
2023-01-27T02:33:36.057Z,44.05
2023-01-27T02:36:07.409Z,44.53
2023-01-27T02:38:39.032Z,46.15
2023-01-27T02:41:14.325Z,39.92
2023-01-27T02:43:42.481Z,42.63
2023-01-27T02:46:10.484Z,42.38
2023-01-27T02:48:38.542Z,44.25
2023-01-27T02:51:06.155Z,42.95
2023-01-27T02:53:35.740Z,39.03
2023-01-27T02:56:03.406Z,48.22
2023-01-27T02:58:31.780Z,38.72
2023-01-27T03:01:09.825Z,38.63
2023-01-27T03:03:44.252Z,36.58
2023-01-27T03:06:12.038Z,36.22
2023-01-27T03:08:40.000Z,33.85
2023-01-27T03:11:08.590Z,36.83
2023-01-27T03:13:37.272Z,31.10
2023-01-27T03:16:24.689Z,38.88
2023-01-27T03:18:56.554Z,40.83
2023-01-27T03:21:24.242Z,30.15
2023-01-27T03:23:52.259Z,32.63
2023-01-27T03:26:23.082Z,32.75
2023-01-27T03:29:13.909Z,37.63
2023-01-27T03:31:44.273Z,42.33
2023-01-27T03:34:11.974Z,32.30
2023-01-27T03:37:05.271Z,32.08
2023-01-27T03:39:51.669Z,38.80
2023-01-27T03:42:37.762Z,36.92
2023-01-27T03:45:24.757Z,33.17
2023-01-27T03:47:52.361Z,33.15
2023-01-27T03:50:37.745Z,40.47
2023-01-27T03:53:06.147Z,33.28
2023-01-27T03:55:36.132Z,30.10
2023-01-27T03:58:18.349Z,32.00
2023-01-27T04:00:56.891Z,34.22
2023-01-27T04:03:46.155Z,38.88
2023-01-27T04:06:38.347Z,41.85
2023-01-27T04:09:07.570Z,35.28
2023-01-27T04:11:53.636Z,28.85
2023-01-27T04:14:35.734Z,39.25
2023-01-27T04:17:07.695Z,34.83
2023-01-27T04:19:35.483Z,32.30
2023-01-27T04:22:03.998Z,35.78
2023-01-27T04:24:33.922Z,45.20
2023-01-27T04:27:09.766Z,37.33
2023-01-27T04:29:41.232Z,37.63
2023-01-27T04:32:13.985Z,37.65
2023-01-27T04:34:42.153Z,39.72
2023-01-27T04:37:10.310Z,40.10
2023-01-27T04:39:41.493Z,48.67
2023-01-27T04:42:09.025Z,46.88
2023-01-27T04:44:36.744Z,50.70
2023-01-27T04:47:06.382Z,44.80
2023-01-27T04:49:33.978Z,45.45
2023-01-27T04:52:01.584Z,43.45
2023-01-27T04:54:29.321Z,49.05
2023-01-27T04:57:00.161Z,50.40
2023-01-27T04:59:28.002Z,58.20
2023-01-27T05:01:55.936Z,45.95
2023-01-27T05:04:26.453Z,58.17
2023-01-27T05:06:54.452Z,55.22
2023-01-27T05:09:22.389Z,57.78
2023-01-27T05:11:50.292Z,60.13
2023-01-27T05:14:17.899Z,59.90
2023-01-27T05:16:45.711Z,56.15
2023-01-27T05:19:14.096Z,56.07
2023-01-27T05:21:43.401Z,56.90
2023-01-27T05:24:11.542Z,52.72
2023-01-27T05:26:42.766Z,55.60
2023-01-27T05:29:10.388Z,59.83
2023-01-27T05:31:38.319Z,54.45
2023-01-27T05:34:06.044Z,61.95
2023-01-27T05:36:33.902Z,61.63
2023-01-27T05:39:01.799Z,55.88
2023-01-27T05:41:33.402Z,58.40
2023-01-27T05:44:01.013Z,58.15
2023-01-27T05:46:31.149Z,58.42
2023-01-27T05:49:06.469Z,63.40
2023-01-27T05:51:37.570Z,53.30
2023-01-27T05:56:33.680Z,67.60
2023-01-27T05:59:01.351Z,61.88
2023-01-27T06:01:31.420Z,65.90
2023-01-27T06:03:59.502Z,58.30
2023-01-27T06:08:57.466Z,55.55
2023-01-27T06:11:26.018Z,69.85
2023-01-27T06:16:23.696Z,55.83
2023-01-27T06:18:51.895Z,58.75
2023-01-27T06:21:20.966Z,51.75
2023-01-27T06:23:49.338Z,53.63
2023-01-27T06:26:19.535Z,50.28
2023-01-27T06:28:48.024Z,50.33
2023-01-27T06:31:19.026Z,49.70
2023-01-27T06:33:47.320Z,48.50
2023-01-27T06:36:18.319Z,43.10
2023-01-27T06:38:46.616Z,50.70
2023-01-27T06:41:14.213Z,51.17
2023-01-27T06:43:42.245Z,51.45
2023-01-27T06:46:09.914Z,47.33
2023-01-27T06:48:40.595Z,51.42
2023-01-27T06:51:10.483Z,57.05
2023-01-27T06:53:38.905Z,49.40
2023-01-27T06:56:07.131Z,48.67
2023-01-27T06:58:35.135Z,54.03
2023-01-27T07:01:06.474Z,60.20
2023-01-27T07:06:00.790Z,51.75
2023-01-27T07:08:28.722Z,50.20
2023-01-27T07:10:57.768Z,56.20
2023-01-27T07:13:25.993Z,68.87
2023-01-27T07:15:56.815Z,58.90
2023-01-27T07:18:24.602Z,61.42
2023-01-27T07:20:52.465Z,52.97
2023-01-27T07:23:20.024Z,61.00
2023-01-27T07:25:47.537Z,60.53
2023-01-27T07:28:15.366Z,64.10
2023-01-27T07:30:44.159Z,65.75
2023-01-27T07:33:15.460Z,60.67
2023-01-27T07:35:43.193Z,54.63
2023-01-27T07:38:11.243Z,61.40
2023-01-27T10:54:29.963Z,54.67
2023-01-27T10:57:03.160Z,51.10
2023-01-27T11:00:17.350Z,49.92
2023-01-27T11:02:58.870Z,46.17
2023-01-27T11:05:37.142Z,51.45
2023-01-27T11:08:12.396Z,70.68
2023-01-27T11:11:02.980Z,52.25
2023-01-27T11:13:33.412Z,53.58
2023-01-27T11:18:34.207Z,52.80
2023-01-27T11:21:34.456Z,54.78
2023-01-27T11:24:16.700Z,42.25
2023-01-27T11:26:50.485Z,44.10
2023-01-27T11:29:43.113Z,50.83
2023-01-27T11:32:18.951Z,47.20
2023-01-27T11:34:58.054Z,49.22
2023-01-27T11:37:37.455Z,54.42
2023-01-27T11:40:22.802Z,48.28
2023-01-27T11:42:51.956Z,45.70
2023-01-27T11:45:21.438Z,51.28
2023-01-27T11:47:53.073Z,48.00
2023-01-27T11:50:24.847Z,42.40
2023-01-27T11:53:11.423Z,45.90
2023-01-27T11:55:43.633Z,50.92
2023-01-27T11:58:26.581Z,46.45
2023-01-27T12:01:00.863Z,44.58
2023-01-27T12:04:07.037Z,47.22
2023-01-27T12:07:28.473Z,54.25
2023-01-27T12:09:58.402Z,48.33
2023-01-27T12:12:27.975Z,50.85
2023-01-27T12:15:00.334Z,46.97
2023-01-27T12:17:41.018Z,41.17
2023-01-27T12:20:17.613Z,41.72
2023-01-27T12:22:49.263Z,42.10
2023-01-27T12:25:24.841Z,38.95
2023-01-27T12:27:57.271Z,33.95
2023-01-27T12:30:28.882Z,35.97
2023-01-27T12:32:58.943Z,34.30
2023-01-27T12:35:36.025Z,34.53
2023-01-27T12:38:11.656Z,33.60
2023-01-27T12:40:44.960Z,30.90
2023-01-27T12:43:19.981Z,43.85
2023-01-27T12:46:02.728Z,28.13
2023-01-27T12:48:34.160Z,36.03
2023-01-27T12:51:35.987Z,36.60
2023-01-27T12:54:23.473Z,26.45
2023-01-27T12:56:54.437Z,37.63
2023-01-27T12:59:25.912Z,31.80
2023-01-27T13:01:58.361Z,38.20
2023-01-27T13:04:27.294Z,31.33
2023-01-27T13:07:03.429Z,34.53
2023-01-27T13:09:34.821Z,32.57
2023-01-27T13:12:12.658Z,30.30
2023-01-27T13:14:42.987Z,31.40
2023-01-27T13:20:35.216Z,35.30
2023-01-27T13:23:10.983Z,31.05
2023-01-27T13:31:21.407Z,33.17
2023-01-27T13:33:55.688Z,30.08
2023-01-27T13:36:38.053Z,30.48
2023-01-27T13:39:27.163Z,35.90
2023-01-27T13:42:02.333Z,30.05
2023-01-27T13:44:39.455Z,30.00
2023-01-27T13:47:18.353Z,29.88
2023-01-27T13:49:50.651Z,28.38
2023-01-27T13:52:18.518Z,27.85
2023-01-27T13:54:46.096Z,30.00
2023-01-27T13:57:40.515Z,29.10
2023-01-27T14:01:01.030Z,27.90
2023-01-27T14:03:54.495Z,30.27
2023-01-27T14:06:56.192Z,28.73
2023-01-27T14:11:08.504Z,26.30
2023-01-27T14:13:39.850Z,28.95
2023-01-27T14:16:18.974Z,30.63
2023-01-27T14:19:04.833Z,27.20
2023-01-27T14:21:41.304Z,35.03
2023-01-27T14:24:24.313Z,30.92
2023-01-27T14:27:19.624Z,32.53
2023-01-27T14:29:59.329Z,31.80
2023-01-27T14:32:39.860Z,33.63
2023-01-27T14:35:55.156Z,33.47
2023-01-27T14:38:34.580Z,36.63
2023-01-27T14:41:02.079Z,35.13
2023-01-27T14:43:46.793Z,33.47
2023-01-27T14:46:44.914Z,39.70
2023-01-27T14:49:32.123Z,34.65
2023-01-27T14:52:13.584Z,34.97
2023-01-27T14:55:00.006Z,37.35
2023-01-27T14:58:02.246Z,31.40
2023-01-27T15:00:52.471Z,36.55
2023-01-27T15:04:02.265Z,37.78
2023-01-27T15:06:56.075Z,29.95
2023-01-27T15:09:43.190Z,34.95
2023-01-27T15:12:19.865Z,31.73
2023-01-27T15:15:12.876Z,29.83
2023-01-27T15:17:59.451Z,27.48
2023-01-27T15:20:30.619Z,25.90
2023-01-27T15:23:32.862Z,26.80
2023-01-27T15:26:06.707Z,25.38
2023-01-27T15:28:39.380Z,27.63
2023-01-27T15:31:21.602Z,31.83
2023-01-27T15:34:01.537Z,37.55
2023-01-27T15:36:32.188Z,35.08
2023-01-27T15:39:09.129Z,35.13
2023-01-27T15:42:01.580Z,38.92
2023-01-27T15:44:31.684Z,39.67
2023-01-27T15:47:11.473Z,34.25
2023-01-27T15:50:00.972Z,34.15
2023-01-27T15:52:46.246Z,31.88
2023-01-27T16:00:55.374Z,31.67
2023-01-27T16:03:35.444Z,29.05
2023-01-27T16:06:12.361Z,28.38
2023-01-27T16:08:52.486Z,28.88
2023-01-27T16:11:29.193Z,27.33
2023-01-27T16:14:12.132Z,27.23
2023-01-27T16:16:41.678Z,28.88
2023-01-27T16:19:25.073Z,31.98
2023-01-27T16:22:01.881Z,32.08
2023-01-27T16:24:47.885Z,33.47
2023-01-27T16:27:31.648Z,37.30
2023-01-27T19:42:41.892Z,31.85
2023-01-27T19:45:15.861Z,33.50
2023-01-27T19:47:47.113Z,35.50
2023-01-27T19:50:28.153Z,31.38
2023-01-27T19:52:56.619Z,34.47
2023-01-27T19:55:24.587Z,32.08
2023-01-27T19:57:52.773Z,33.08
2023-01-27T20:00:29.656Z,31.00
2023-01-27T20:02:57.768Z,35.10
2023-01-27T20:05:27.845Z,38.17
2023-01-27T20:07:57.228Z,38.33
2023-01-27T20:10:31.585Z,33.85
2023-01-27T20:13:05.173Z,34.13
2023-01-27T20:15:40.001Z,35.63
2023-01-27T20:18:09.554Z,31.23
2023-01-27T20:20:37.431Z,31.75
2023-01-27T20:23:05.185Z,31.33
2023-01-27T20:25:33.105Z,32.13
2023-01-27T20:28:01.775Z,32.13
2023-01-27T20:30:34.653Z,31.95
2023-01-27T20:33:04.143Z,36.95
2023-01-27T20:35:32.006Z,31.75
2023-01-27T20:38:00.242Z,38.47
2023-01-27T20:42:56.741Z,33.72
2023-01-27T20:45:24.547Z,38.38
2023-01-27T20:47:54.317Z,41.85
2023-01-27T20:50:24.352Z,37.83
2023-01-27T20:52:53.667Z,36.53
2023-01-27T20:55:21.236Z,38.72
2023-01-27T20:57:49.419Z,39.28
2023-01-27T21:00:19.545Z,37.35
2023-01-27T21:02:48.026Z,38.08
2023-01-27T21:05:16.174Z,41.80
2023-01-27T21:07:43.985Z,42.72
2023-01-27T21:10:11.795Z,37.22
2023-01-27T21:12:59.203Z,40.10
2023-01-27T21:15:27.647Z,38.13
2023-01-27T21:17:56.100Z,42.92
2023-01-27T21:20:23.676Z,42.05
2023-01-27T21:22:51.382Z,40.25
2023-01-27T21:25:19.203Z,46.55
2023-01-27T21:27:50.878Z,40.15
2023-01-27T21:30:18.722Z,40.30
2023-01-27T21:32:46.241Z,39.90
2023-01-27T21:35:47.763Z,40.65
2023-01-27T21:38:22.080Z,49.60
2023-01-27T21:40:51.581Z,43.47
2023-01-27T21:43:38.393Z,42.83
2023-01-27T21:46:06.118Z,48.72
2023-01-27T21:48:36.607Z,36.60
2023-01-27T21:51:09.757Z,49.38
2023-01-27T21:53:43.064Z,44.78
2023-01-27T21:56:11.412Z,38.13
2023-01-27T21:58:41.027Z,49.47
2023-01-27T22:01:10.322Z,46.72
2023-01-27T22:03:38.503Z,47.25
2023-01-27T22:06:08.260Z,46.58
2023-01-27T22:08:37.438Z,56.63
2023-01-27T22:11:07.575Z,48.15
2023-01-27T22:13:36.775Z,44.05
2023-01-27T22:16:05.185Z,49.45
2023-01-27T22:18:32.855Z,42.03
2023-01-27T22:21:03.223Z,48.72
2023-01-27T22:23:30.826Z,49.65
2023-01-27T22:25:58.549Z,46.00
2023-01-27T22:28:26.979Z,43.35
2023-01-27T22:30:54.933Z,42.20
2023-01-27T22:33:22.641Z,43.28
2023-01-27T22:35:58.901Z,45.10
2023-01-27T22:38:28.331Z,41.20
2023-01-27T22:40:59.283Z,47.40
2023-01-27T22:43:36.946Z,48.65
2023-01-27T22:46:05.287Z,41.65
2023-01-27T22:48:33.488Z,51.70
2023-01-27T22:51:05.259Z,49.40
2023-01-27T22:53:35.750Z,47.95
2023-01-27T22:56:04.065Z,46.28
2023-01-27T22:58:31.691Z,50.17
2023-01-27T23:00:59.415Z,46.95
2023-01-27T23:03:27.475Z,43.17
2023-01-27T23:05:55.309Z,44.72
2023-01-27T23:08:23.112Z,47.13
2023-01-27T23:10:52.589Z,46.90
2023-01-27T23:13:20.588Z,47.10
2023-01-27T23:15:48.122Z,46.40
2023-01-27T23:18:15.785Z,47.88
2023-01-27T23:20:43.796Z,49.80
2023-01-27T23:23:12.068Z,43.20
2023-01-27T23:25:45.220Z,50.45
2023-01-27T23:28:19.423Z,49.47
2023-01-27T23:30:49.317Z,55.10
2023-01-27T23:33:19.753Z,47.33
2023-01-27T23:35:47.851Z,48.05
2023-01-27T23:38:31.781Z,48.78
2023-01-27T23:41:14.557Z,54.47
2023-01-27T23:43:42.233Z,48.95
2023-01-27T23:46:10.134Z,45.40
2023-01-27T23:48:37.724Z,48.45
2023-01-27T23:51:07.968Z,53.08
2023-01-27T23:53:35.614Z,45.30
2023-01-27T23:56:03.911Z,47.03
2023-01-27T23:58:32.480Z,53.47
